This is the latest recevied weather packets stored in our database for station/object DB0TV-13. If no packets are shown the sender has not sent any weather packets the latest 10 day(s).
| Time | Temp. | Humidity | Pressure | Rain* | Wind** | Luminosity | Snow |
|---|---|---|---|---|---|---|---|
| 1777831218 | 14.44° C | 84% | 1011.5 hPa | 0 mm | - | 34 W/m² | - |
| 1777830618 | 15° C | 84% | 1011.4 hPa | 0 mm | - | 28 W/m² | - |
| 1777830020 | 14.44° C | 85% | 1011.4 hPa | 0 mm | - | 58 W/m² | - |
| 1777829420 | 14.44° C | 85% | 1011.4 hPa | 0 mm | - | 96 W/m² | - |
| 1777828820 | 14.44° C | 85% | 1011.5 hPa | 0 mm | - | 85 W/m² | - |
| 1777828218 | 14.44° C | 85% | 1011.6 hPa | 0 mm | - | 89 W/m² | - |
| 1777827618 | 14.44° C | 85% | 1011.6 hPa | 0 mm | - | 97 W/m² | - |
| 1777827020 | 14.44° C | 86% | 1011.6 hPa | 0 mm | - | 96 W/m² | - |
| 1777826420 | 14.44° C | 86% | 1011.4 hPa | 0 mm | - | 122 W/m² | - |
| 1777825820 | 14.44° C | 85% | 1011.5 hPa | 0 mm | - | 75 W/m² | - |
| 1777825218 | 14.44° C | 84% | 1011.6 hPa | 0 mm | - | 61 W/m² | - |
| 1777824620 | 15° C | 81% | 1011.5 hPa | 0 mm | - | 86 W/m² | - |
| 1777824020 | 15° C | 80% | 1011.6 hPa | 0 mm | - | 123 W/m² | - |
| 1777823420 | 15.56° C | 78% | 1011.8 hPa | 0 mm | - | 188 W/m² | - |
| 1777822820 | 16.11° C | 75% | 1011.7 hPa | 0 mm | - | 71 W/m² | - |
| 1777822220 | 16.67° C | 71% | 1011.6 hPa | 0 mm | - | 56 W/m² | - |
| 1777821620 | 17.22° C | 70% | 1011.3 hPa | 0 mm | - | 131 W/m² | - |
| 1777821018 | 17.22° C | 70% | 1011.3 hPa | 0 mm | - | 206 W/m² | - |
| 1777820418 | 17.22° C | 69% | 1011.3 hPa | 0 mm | - | 286 W/m² | - |
| 1777819820 | 17.22° C | 69% | 1011.4 hPa | 0 mm | - | 342 W/m² | - |
| 1777819220 | 17.22° C | 70% | 1011.4 hPa | 0 mm | - | 306 W/m² | - |
| 1777818620 | 16.67° C | 70% | 1011.4 hPa | 0 mm | - | 332 W/m² | - |
| 1777818020 | 16.67° C | 72% | 1011.5 hPa | 0 mm | - | 242 W/m² | - |
| 1777817420 | 16.67° C | 71% | 1011.4 hPa | 0 mm | - | 268 W/m² | - |
| 1777816820 | 17.22° C | 69% | 1011.5 hPa | 0 mm | - | 255 W/m² | - |
* Rain latest hour (hover to see other rain measurements)
** Current wind speed in m/s (hover to see current wind gust speed)